Time;durP1;ratioP1;P1;durP2;ratioP2;P2;SDS_P1;SDS_P2;PMS_P1;PMS_P2;Temp;Humidity;BMP_temperature;BMP_pressure;BME280_temperature;BME280_humidity;BME280_pressure;Samples;Min_cycle;Max_cycle;Signal;HPM_P1;HPM_P2
2022/07/16 00:01:22;;;;;;;4.85;1.85;;;16.60;99.90;;;;;;5092958;28;20044;-84
2022/07/16 00:03:49;;;;;;;7.43;2.20;;;16.50;99.90;;;;;;5092963;28;20139;-84
2022/07/16 00:06:15;;;;;;;6.60;2.17;;;16.50;99.90;;;;;;5092719;28;20040;-84
2022/07/16 00:08:40;;;;;;;6.22;2.15;;;16.50;99.90;;;;;;5092978;28;20116;-84
2022/07/16 00:11:06;;;;;;;5.03;1.83;;;16.50;99.90;;;;;;5092841;28;20028;-84
2022/07/16 00:13:31;;;;;;;5.78;1.95;;;16.50;99.90;;;;;;5092739;28;20486;-84
2022/07/16 00:15:57;;;;;;;6.95;1.80;;;16.50;99.90;;;;;;5092613;28;20043;-84
2022/07/16 00:21:07;;;;;;;7.18;1.88;;;16.40;99.90;;;;;;5109307;28;20044;-84
2022/07/16 00:23:32;;;;;;;5.00;1.90;;;16.40;99.90;;;;;;5092742;28;20378;-84
2022/07/16 00:25:58;;;;;;;4.82;1.75;;;16.40;99.90;;;;;;5092778;28;20047;-85
2022/07/16 00:28:23;;;;;;;7.05;1.70;;;16.40;99.90;;;;;;5092490;28;20462;-84
2022/07/16 00:30:49;;;;;;;6.82;2.00;;;16.40;99.90;;;;;;5092203;28;20190;-84
2022/07/16 00:33:14;;;;;;;6.30;2.28;;;16.40;99.90;;;;;;5092364;28;20044;-85
2022/07/16 00:35:40;;;;;;;3.30;1.40;;;16.30;99.90;;;;;;5092074;28;20051;-84
2022/07/16 00:38:07;;;;;;;5.75;2.22;;;16.30;99.90;;;;;;5092191;28;20078;-84
2022/07/16 00:40:33;;;;;;;6.03;2.00;;;16.30;99.90;;;;;;5092094;28;20044;-85
2022/07/16 00:42:59;;;;;;;5.88;2.15;;;16.20;99.90;;;;;;5092137;28;20044;-84
2022/07/16 00:45:25;;;;;;;6.15;2.28;;;16.20;99.90;;;;;;5109447;28;20035;-84
2022/07/16 00:47:52;;;;;;;7.22;2.30;;;16.30;99.90;;;;;;5092365;28;20054;-84
2022/07/16 00:50:18;;;;;;;5.50;1.95;;;16.30;99.90;;;;;;5092821;28;20051;-84
2022/07/16 00:52:44;;;;;;;7.28;2.42;;;16.20;99.90;;;;;;5092333;28;20055;-84
2022/07/16 00:55:09;;;;;;;6.80;2.55;;;16.20;99.90;;;;;;5091783;28;20515;-84
2022/07/16 00:57:36;;;;;;;6.18;1.90;;;16.20;99.90;;;;;;5092245;28;20059;-84
2022/07/16 01:00:05;;;;;;;8.75;2.90;;;16.30;99.90;;;;;;5091744;28;20102;-84
2022/07/16 01:02:33;;;;;;;5.97;2.42;;;16.20;99.90;;;;;;5091867;28;20036;-84
2022/07/16 01:05:00;;;;;;;7.18;2.60;;;16.30;99.90;;;;;;5091798;28;20127;-84
2022/07/16 01:07:25;;;;;;;6.22;2.63;;;16.30;99.90;;;;;;5091387;28;20055;-84
2022/07/16 01:09:52;;;;;;;4.90;2.05;;;16.30;99.90;;;;;;5091445;28;20036;-84
2022/07/16 01:12:18;;;;;;;10.00;3.00;;;16.20;99.90;;;;;;5091624;28;20035;-84
2022/07/16 01:14:44;;;;;;;6.63;2.03;;;16.30;99.90;;;;;;5091521;28;20508;-84
2022/07/16 01:17:09;;;;;;;6.60;2.60;;;16.30;99.90;;;;;;5091643;28;20050;-84
2022/07/16 01:19:36;;;;;;;5.97;2.22;;;16.30;99.90;;;;;;5091256;28;20043;-84
2022/07/16 01:22:01;;;;;;;9.60;2.83;;;16.30;99.90;;;;;;5091944;28;20443;-84
2022/07/16 01:24:27;;;;;;;8.13;2.95;;;16.30;99.90;;;;;;5091583;28;20036;-84
2022/07/16 01:26:52;;;;;;;8.32;2.60;;;16.30;99.90;;;;;;5108380;28;20040;-84
2022/07/16 01:29:18;;;;;;;5.85;2.35;;;16.30;99.90;;;;;;5090988;28;20047;-84
2022/07/16 01:31:44;;;;;;;8.48;2.70;;;16.30;99.90;;;;;;5091196;28;20044;-84
2022/07/16 01:34:27;;;;;;;6.80;2.40;;;16.30;99.90;;;;;;5090932;28;20047;-85
2022/07/16 01:36:58;;;;;;;6.05;2.30;;;16.30;99.90;;;;;;5091196;28;20382;-85
2022/07/16 01:39:25;;;;;;;6.60;2.83;;;16.40;99.90;;;;;;5090762;28;20528;-84
2022/07/16 01:41:53;;;;;;;5.40;2.28;;;16.30;99.90;;;;;;5091433;28;20036;-84
2022/07/16 01:44:20;;;;;;;5.80;1.92;;;16.40;99.90;;;;;;5090822;28;20028;-85
2022/07/16 01:46:46;;;;;;;7.43;2.55;;;16.30;99.90;;;;;;5091203;28;20168;-85
2022/07/16 01:49:11;;;;;;;7.20;2.80;;;16.30;99.90;;;;;;5090729;28;20513;-85
2022/07/16 01:51:37;;;;;;;7.00;2.60;;;16.40;99.90;;;;;;5090952;28;20404;-85
2022/07/16 01:54:03;;;;;;;7.50;2.60;;;16.40;99.90;;;;;;5090833;28;20047;-84
2022/07/16 01:56:28;;;;;;;7.97;2.70;;;16.30;99.90;;;;;;5090548;28;20089;-85
2022/07/16 01:58:54;;;;;;;7.90;2.28;;;16.30;99.90;;;;;;5091979;28;20036;-85
2022/07/16 02:01:19;;;;;;;7.90;2.90;;;16.20;99.90;;;;;;5090843;28;20504;-85
2022/07/16 02:03:45;;;;;;;6.55;2.92;;;16.20;99.90;;;;;;5090506;28;20485;-84
2022/07/16 02:06:10;;;;;;;6.63;2.58;;;16.20;99.90;;;;;;5091006;28;20096;-85
2022/07/16 02:08:36;;;;;;;7.00;2.70;;;16.20;99.90;;;;;;5107532;28;20086;-84
2022/07/16 02:11:02;;;;;;;6.80;2.75;;;16.20;99.90;;;;;;5090536;28;20047;-84
2022/07/16 02:13:27;;;;;;;9.25;2.65;;;16.20;99.90;;;;;;5107253;28;20443;-85
2022/07/16 02:15:53;;;;;;;7.40;3.00;;;16.20;99.90;;;;;;5090116;28;20071;-84
2022/07/16 02:18:18;;;;;;;7.65;3.08;;;16.20;99.90;;;;;;5090040;28;20040;-84
2022/07/16 02:20:45;;;;;;;7.68;2.67;;;16.20;99.90;;;;;;5090512;28;20040;-84
2022/07/16 02:23:10;;;;;;;8.82;3.17;;;16.20;99.90;;;;;;5090459;28;20043;-84
2022/07/16 02:25:36;;;;;;;7.72;3.50;;;16.30;99.90;;;;;;5090298;28;20475;-85
2022/07/16 02:28:07;;;;;;;8.13;3.40;;;16.30;99.90;;;;;;5090214;28;20036;-85
2022/07/16 02:30:44;;;;;;;7.15;3.55;;;16.30;99.90;;;;;;5090015;28;20055;-84
2022/07/16 02:33:11;;;;;;;6.65;3.38;;;16.30;99.90;;;;;;5073408;28;20040;-84
2022/07/16 02:35:37;;;;;;;8.40;3.65;;;16.30;99.90;;;;;;5073260;28;20176;-85
2022/07/16 02:38:06;;;;;;;7.90;3.42;;;16.30;99.90;;;;;;5090217;28;20036;-85
2022/07/16 02:40:34;;;;;;;6.72;3.30;;;16.30;99.90;;;;;;5089618;28;20085;-85
2022/07/16 02:43:02;;;;;;;9.95;3.83;;;16.30;99.90;;;;;;5090298;28;20097;-85
2022/07/16 02:45:28;;;;;;;9.77;2.97;;;16.30;99.90;;;;;;5090357;28;20173;-85
2022/07/16 02:47:54;;;;;;;8.98;3.95;;;16.30;99.90;;;;;;5090065;28;20525;-84
2022/07/16 02:50:19;;;;;;;8.82;3.67;;;16.30;99.90;;;;;;5090039;28;20040;-84
2022/07/16 02:52:45;;;;;;;7.60;3.30;;;16.30;99.90;;;;;;5090278;28;20546;-85
2022/07/16 02:55:11;;;;;;;7.93;3.75;;;16.30;99.90;;;;;;5089659;28;20036;-84
2022/07/16 02:57:37;;;;;;;9.20;3.80;;;16.30;99.90;;;;;;5090210;28;20081;-85
2022/07/16 03:00:08;;;;;;;8.70;3.92;;;16.30;99.90;;;;;;5089982;28;20046;-85
2022/07/16 03:02:34;;;;;;;7.80;3.80;;;16.30;99.90;;;;;;5089959;28;20036;-85
2022/07/16 03:05:00;;;;;;;9.02;4.00;;;16.30;99.90;;;;;;5090130;28;20581;-85
2022/07/16 03:07:25;;;;;;;8.55;3.92;;;16.30;99.90;;;;;;5107135;28;20069;-85
2022/07/16 03:09:51;;;;;;;9.32;4.15;;;16.30;99.90;;;;;;5089627;28;20039;-85
2022/07/16 03:12:18;;;;;;;8.10;3.22;;;16.30;99.90;;;;;;5089959;28;20492;-85
2022/07/16 03:14:44;;;;;;;8.60;4.18;;;16.30;99.90;;;;;;5089495;28;20048;-85
2022/07/16 03:17:10;;;;;;;8.32;3.83;;;16.30;99.90;;;;;;5090073;28;20400;-85
2022/07/16 03:19:36;;;;;;;7.85;3.78;;;16.30;99.90;;;;;;5089431;28;20032;-85
2022/07/16 03:22:01;;;;;;;8.75;3.92;;;16.30;99.90;;;;;;5106777;28;20036;-85
2022/07/16 03:24:27;;;;;;;7.88;3.65;;;16.30;99.90;;;;;;5089355;28;20489;-85
2022/07/16 03:26:53;;;;;;;8.45;2.80;;;16.30;99.90;;;;;;5089673;28;20044;-85
2022/07/16 03:29:18;;;;;;;8.10;3.50;;;16.20;99.90;;;;;;5089572;28;20036;-84
2022/07/16 03:31:44;;;;;;;8.55;3.83;;;16.20;99.90;;;;;;5093596;28;20066;-84
2022/07/16 03:34:09;;;;;;;9.13;2.50;;;16.20;99.90;;;;;;5094836;28;20146;-85
2022/07/16 03:36:35;;;;;;;7.70;3.05;;;16.20;99.90;;;;;;5110381;28;20040;-85
2022/07/16 03:41:26;;;;;;;9.93;3.20;;;16.20;99.90;;;;;;5110354;28;20539;-84
2022/07/16 03:43:52;;;;;;;8.25;3.08;;;16.20;99.90;;;;;;5093172;28;20044;-85
2022/07/16 03:46:18;;;;;;;7.88;2.60;;;16.20;99.90;;;;;;5093430;28;20169;-85
2022/07/16 03:48:44;;;;;;;8.02;3.08;;;16.20;99.90;;;;;;5093282;28;20044;-85
2022/07/16 03:51:11;;;;;;;8.55;2.28;;;16.20;99.90;;;;;;5092957;28;20040;-84
2022/07/16 03:53:38;;;;;;;8.23;3.15;;;16.20;99.90;;;;;;5093133;28;20047;-85
2022/07/16 03:56:04;;;;;;;8.20;2.97;;;16.20;99.90;;;;;;5093078;28;20051;-85
2022/07/16 03:58:30;;;;;;;10.15;2.67;;;16.20;99.90;;;;;;5093304;28;20068;-85
2022/07/16 04:00:56;;;;;;;8.55;3.00;;;16.20;99.90;;;;;;5092900;28;20094;-85
2022/07/16 04:03:23;;;;;;;7.70;2.63;;;16.20;99.90;;;;;;5092994;28;20123;-85
2022/07/16 04:05:50;;;;;;;6.53;2.08;;;16.20;99.90;;;;;;5093192;28;20508;-85
2022/07/16 04:08:16;;;;;;;8.80;2.95;;;16.20;99.90;;;;;;5092717;28;20115;-85
2022/07/16 04:10:41;;;;;;;8.45;1.92;;;16.20;99.90;;;;;;5092557;28;20135;-84
2022/07/16 04:13:07;;;;;;;9.18;2.85;;;16.20;99.90;;;;;;5093085;28;20040;-84
2022/07/16 04:15:32;;;;;;;7.72;2.30;;;16.20;99.90;;;;;;5092512;28;20528;-84
2022/07/16 04:17:58;;;;;;;11.52;2.63;;;16.20;99.90;;;;;;5092675;28;20390;-84
2022/07/16 04:20:24;;;;;;;7.13;2.10;;;16.20;99.90;;;;;;5093444;28;20036;-84
2022/07/16 04:22:49;;;;;;;7.97;2.38;;;16.20;99.90;;;;;;5092293;28;20036;-84
2022/07/16 04:25:15;;;;;;;7.82;2.40;;;16.20;99.90;;;;;;5092495;28;20064;-84
2022/07/16 04:27:44;;;;;;;8.52;2.67;;;16.20;99.90;;;;;;5092301;28;20040;-85
2022/07/16 04:30:11;;;;;;;8.20;2.30;;;16.30;99.90;;;;;;5092144;28;20074;-84
2022/07/16 04:32:38;;;;;;;8.18;2.53;;;16.30;99.90;;;;;;5092326;28;20040;-84
2022/07/16 04:35:05;;;;;;;6.97;2.17;;;16.30;99.90;;;;;;5092273;28;20141;-84
2022/07/16 04:37:30;;;;;;;9.40;2.63;;;16.20;99.90;;;;;;5092217;28;20043;-84
2022/07/16 04:39:56;;;;;;;6.13;1.80;;;16.20;99.90;;;;;;5091964;28;20028;-84
2022/07/16 04:42:22;;;;;;;8.57;2.33;;;16.20;99.90;;;;;;5092189;28;20650;-84
2022/07/16 04:44:47;;;;;;;9.00;2.47;;;16.10;99.90;;;;;;5091935;28;20028;-85
2022/07/16 04:47:13;;;;;;;8.18;2.22;;;16.10;99.90;;;;;;5092436;28;20128;-84
2022/07/16 04:49:38;;;;;;;6.07;1.75;;;16.00;99.90;;;;;;5087532;28;20451;-84
2022/07/16 04:52:05;;;;;;;7.28;2.53;;;16.00;99.90;;;;;;5089983;28;20516;-85
2022/07/16 04:54:31;;;;;;;6.30;1.73;;;16.10;99.90;;;;;;5090876;28;20105;-84
2022/07/16 04:56:56;;;;;;;8.90;2.38;;;16.10;99.90;;;;;;5089833;28;20078;-85
2022/07/16 04:59:22;;;;;;;7.63;2.30;;;16.10;99.90;;;;;;5073761;28;20047;-84
2022/07/16 05:01:48;;;;;;;8.07;2.55;;;16.20;99.90;;;;;;5090179;28;20036;-85
2022/07/16 05:04:13;;;;;;;7.00;2.15;;;16.20;99.90;;;;;;5090500;28;20515;-84
2022/07/16 05:06:39;;;;;;;8.95;2.20;;;16.30;99.90;;;;;;5073659;28;20047;-84
2022/07/16 05:09:04;;;;;;;6.95;2.05;;;16.20;99.90;;;;;;5073052;28;20051;-84
2022/07/16 05:11:30;;;;;;;9.90;2.40;;;16.20;99.90;;;;;;5074217;28;20042;-85
2022/07/16 05:13:56;;;;;;;7.35;2.20;;;16.20;99.90;;;;;;5073543;28;20516;-85
2022/07/16 05:16:23;;;;;;;7.63;1.95;;;16.30;99.90;;;;;;5073531;28;20048;-85
2022/07/16 05:18:49;;;;;;;9.23;2.55;;;16.30;99.90;;;;;;5090282;28;20055;-85
2022/07/16 05:21:15;;;;;;;6.13;2.00;;;16.30;99.90;;;;;;5089868;28;20048;-85
2022/07/16 05:23:41;;;;;;;7.57;1.92;;;16.40;99.90;;;;;;5090619;28;20046;-85
2022/07/16 05:26:07;;;;;;;9.15;2.75;;;16.30;99.90;;;;;;5090359;28;20519;-85
2022/07/16 05:28:32;;;;;;;8.98;2.30;;;16.30;99.90;;;;;;5090452;28;20040;-85
2022/07/16 05:30:58;;;;;;;10.98;2.35;;;16.40;99.90;;;;;;5073848;28;20512;-85
2022/07/16 05:33:24;;;;;;;9.18;2.38;;;16.50;99.90;;;;;;5089592;28;20072;-84
2022/07/16 05:35:49;;;;;;;7.00;1.80;;;16.40;99.90;;;;;;5073473;28;20062;-85
2022/07/16 05:38:15;;;;;;;9.43;2.28;;;16.40;99.90;;;;;;5090220;28;20035;-85
2022/07/16 05:40:41;;;;;;;5.38;1.63;;;16.40;99.90;;;;;;5090220;28;20039;-85
2022/07/16 05:43:07;;;;;;;8.82;2.40;;;16.40;99.90;;;;;;5073239;28;20534;-85
2022/07/16 05:45:32;;;;;;;10.00;2.40;;;16.40;99.90;;;;;;5072566;28;20032;-85
2022/07/16 05:47:58;;;;;;;10.30;2.53;;;16.50;99.90;;;;;;5090866;28;20040;-85
2022/07/16 05:50:24;;;;;;;7.90;2.20;;;16.50;99.90;;;;;;5072872;28;20421;-85
2022/07/16 05:52:50;;;;;;;9.15;2.13;;;16.60;99.90;;;;;;5072860;28;20525;-85
2022/07/16 05:55:15;;;;;;;12.52;2.53;;;16.60;99.90;;;;;;5091810;28;20040;-84
2022/07/16 05:57:41;;;;;;;8.50;2.10;;;16.60;99.90;;;;;;5072619;28;20042;-84
2022/07/16 06:00:10;;;;;;;8.85;2.45;;;16.60;99.90;;;;;;5091011;28;20070;-84
2022/07/16 06:02:36;;;;;;;10.35;2.25;;;16.60;99.90;;;;;;5089153;28;20040;-85
2022/07/16 06:05:02;;;;;;;9.60;2.00;;;16.60;99.90;;;;;;5072576;28;20040;-85
2022/07/16 06:07:27;;;;;;;9.70;2.05;;;16.60;99.90;;;;;;5073383;28;20087;-85
2022/07/16 06:09:53;;;;;;;10.90;2.17;;;16.60;99.90;;;;;;5072162;28;20043;-85
2022/07/16 06:12:18;;;;;;;7.88;1.83;;;16.60;99.90;;;;;;5073494;28;20071;-85
2022/07/16 06:14:44;;;;;;;9.18;1.83;;;16.60;99.90;;;;;;5072475;28;20109;-84
2022/07/16 06:17:09;;;;;;;9.05;1.80;;;16.50;99.90;;;;;;5072053;28;20032;-85
2022/07/16 06:19:35;;;;;;;10.60;2.33;;;16.50;99.90;;;;;;5072428;28;20564;-85
2022/07/16 06:22:01;;;;;;;6.82;1.70;;;16.50;99.90;;;;;;5089176;28;20485;-85
2022/07/16 06:24:26;;;;;;;6.15;1.38;;;16.50;99.90;;;;;;5089590;28;20526;-85
2022/07/16 06:26:52;;;;;;;10.23;2.15;;;16.50;99.90;;;;;;5072599;28;20054;-85
2022/07/16 06:29:18;;;;;;;9.07;2.00;;;16.70;99.90;;;;;;5072142;28;20048;-85
2022/07/16 06:31:44;;;;;;;9.65;2.08;;;16.80;99.90;;;;;;5089135;28;20048;-84
2022/07/16 06:34:10;;;;;;;8.38;1.88;;;16.90;99.90;;;;;;5089414;28;20043;-85
2022/07/16 06:36:36;;;;;;;9.15;1.70;;;17.10;99.90;;;;;;5089236;28;20076;-85
2022/07/16 06:39:03;;;;;;;9.07;1.90;;;17.10;99.90;;;;;;5088813;28;20433;-85
2022/07/16 06:41:29;;;;;;;10.55;1.50;;;17.20;99.90;;;;;;5072324;28;20090;-85
2022/07/16 06:43:55;;;;;;;9.52;1.77;;;17.20;99.90;;;;;;5087107;28;20123;-85
2022/07/16 06:46:20;;;;;;;8.27;1.92;;;17.30;99.90;;;;;;5071978;28;20127;-85
2022/07/16 06:48:46;;;;;;;9.25;2.20;;;17.30;99.90;;;;;;5089379;28;20051;-85
2022/07/16 06:51:12;;;;;;;8.48;1.80;;;17.40;99.90;;;;;;5072058;28;20051;-85
2022/07/16 06:53:38;;;;;;;8.70;1.70;;;17.50;99.90;;;;;;5071540;28;20119;-85
2022/07/16 06:56:06;;;;;;;9.45;1.80;;;17.50;99.90;;;;;;5089238;28;20190;-85
2022/07/16 06:58:32;;;;;;;8.88;1.85;;;17.50;99.90;;;;;;5072804;28;20036;-85
2022/07/16 07:00:59;;;;;;;10.40;1.77;;;17.60;99.90;;;;;;5088502;28;20044;-85
2022/07/16 07:03:24;;;;;;;9.55;1.90;;;17.60;99.90;;;;;;5089186;28;20500;-85
2022/07/16 07:05:50;;;;;;;8.57;1.75;;;17.60;99.90;;;;;;5092747;28;20039;-85
2022/07/16 07:08:16;;;;;;;8.15;1.70;;;17.60;99.90;;;;;;5093555;28;20039;-85
2022/07/16 07:10:41;;;;;;;8.98;1.77;;;17.70;99.90;;;;;;5092950;28;20070;-85
2022/07/16 07:13:07;;;;;;;7.28;1.30;;;17.70;99.90;;;;;;5076173;28;20044;-85
2022/07/16 07:15:33;;;;;;;8.50;1.52;;;17.70;99.90;;;;;;5093164;28;20436;-85
2022/07/16 07:17:58;;;;;;;7.78;1.45;;;17.80;99.90;;;;;;5093152;28;20093;-85
2022/07/16 07:20:24;;;;;;;8.77;1.75;;;17.80;99.90;;;;;;5093310;28;20048;-85
2022/07/16 07:22:50;;;;;;;7.88;1.70;;;17.80;99.90;;;;;;5092780;28;20493;-85
2022/07/16 07:25:16;;;;;;;7.40;1.38;;;17.70;99.90;;;;;;5092833;28;20036;-85
2022/07/16 07:27:42;;;;;;;8.65;1.63;;;17.80;99.90;;;;;;5093264;28;20485;-85
2022/07/16 07:30:08;;;;;;;7.18;1.45;;;17.80;99.90;;;;;;5091724;28;20122;-85
2022/07/16 07:32:33;;;;;;;8.65;1.65;;;17.90;99.90;;;;;;5075942;28;20039;-85
2022/07/16 07:34:59;;;;;;;8.95;1.50;;;17.90;99.90;;;;;;5092100;28;20047;-85
2022/07/16 07:37:24;;;;;;;7.95;1.50;;;18.00;99.90;;;;;;5075647;28;20117;-85
2022/07/16 07:39:51;;;;;;;9.60;1.58;;;18.10;99.90;;;;;;5075457;28;20050;-85
2022/07/16 07:42:16;;;;;;;7.43;1.50;;;18.20;99.90;;;;;;5074851;28;20040;-85
2022/07/16 07:44:42;;;;;;;7.45;1.35;;;18.40;99.90;;;;;;5091711;28;20063;-85
2022/07/16 07:47:07;;;;;;;7.30;1.60;;;18.50;99.90;;;;;;5074728;28;20036;-85
2022/07/16 07:49:33;;;;;;;7.40;1.30;;;18.60;99.90;;;;;;5072444;28;20043;-84
2022/07/16 07:51:59;;;;;;;7.55;1.40;;;18.60;99.90;;;;;;5093072;28;20539;-85
2022/07/16 07:54:24;;;;;;;10.23;1.90;;;18.70;99.90;;;;;;5091507;28;20040;-85
2022/07/16 07:56:50;;;;;;;8.93;1.70;;;18.80;99.90;;;;;;5075462;28;20123;-85
2022/07/16 07:59:16;;;;;;;6.80;1.33;;;18.90;99.90;;;;;;5075548;28;20059;-85
2022/07/16 08:01:42;;;;;;;7.65;1.52;;;18.90;99.90;;;;;;5092177;28;20032;-86
2022/07/16 08:04:09;;;;;;;5.60;1.05;;;19.00;99.90;;;;;;5091930;28;20036;-85
2022/07/16 08:06:36;;;;;;;11.35;1.63;;;19.10;99.90;;;;;;5087994;28;20559;-85
2022/07/16 08:09:02;;;;;;;5.65;1.40;;;19.00;99.90;;;;;;5073393;28;20044;-85
2022/07/16 08:11:27;;;;;;;5.43;1.20;;;19.00;99.90;;;;;;5072709;28;20198;-86
2022/07/16 08:13:53;;;;;;;6.78;1.40;;;19.00;99.90;;;;;;5089609;28;20139;-86
2022/07/16 08:16:18;;;;;;;6.90;1.10;;;19.10;98.00;;;;;;5089558;28;20028;-85
2022/07/16 08:18:44;;;;;;;8.18;2.13;;;19.10;97.00;;;;;;5089073;28;20048;-85
2022/07/16 08:21:10;;;;;;;9.43;1.83;;;19.20;95.70;;;;;;5074231;28;20469;-85
2022/07/16 08:26:19;;;;;;;7.43;2.17;;;19.30;99.00;;;;;;5091419;28;20047;-86
2022/07/16 08:28:45;;;;;;;8.88;1.73;;;19.40;99.20;;;;;;5092278;28;20422;-86
2022/07/16 08:31:11;;;;;;;7.13;1.42;;;19.50;98.90;;;;;;5091400;28;20409;-86
2022/07/16 08:33:36;;;;;;;8.82;2.47;;;19.60;97.60;;;;;;5092109;28;20047;-86
2022/07/16 08:36:02;;;;;;;7.28;1.20;;;19.50;96.60;;;;;;5091353;28;20036;-86
2022/07/16 08:38:28;;;;;;;7.10;1.90;;;19.50;96.90;;;;;;5074896;28;20035;-86
2022/07/16 08:40:55;;;;;;;6.00;1.38;;;19.40;97.10;;;;;;5091105;28;20032;-85
2022/07/16 08:43:22;;;;;;;6.55;1.58;;;19.40;96.70;;;;;;5074690;28;20032;-85
2022/07/16 08:45:49;;;;;;;7.60;1.88;;;19.30;96.20;;;;;;5074741;28;20036;-86
2022/07/16 08:48:16;;;;;;;9.70;2.30;;;19.30;96.30;;;;;;5091123;28;20040;-85
2022/07/16 08:50:42;;;;;;;6.13;1.27;;;19.30;95.80;;;;;;5091072;28;20040;-85
2022/07/16 08:53:08;;;;;;;7.82;1.45;;;19.30;94.00;;;;;;5091451;28;20382;-85
2022/07/16 08:55:37;;;;;;;6.80;1.33;;;19.40;94.30;;;;;;5091733;28;20036;-86
2022/07/16 08:58:06;;;;;;;6.13;1.05;;;19.50;93.60;;;;;;5090854;28;20040;-85
2022/07/16 09:00:32;;;;;;;6.88;1.20;;;19.60;95.90;;;;;;5073463;28;20382;-85
2022/07/16 09:02:58;;;;;;;5.15;1.20;;;19.60;94.60;;;;;;5098006;28;20040;-84
2022/07/16 09:05:24;;;;;;;8.80;2.25;;;19.50;94.40;;;;;;5070618;28;20032;-85
2022/07/16 09:07:51;;;;;;;6.78;1.58;;;19.50;94.80;;;;;;5091075;28;20040;-85
2022/07/16 09:10:17;;;;;;;8.25;1.58;;;19.50;93.70;;;;;;5090902;28;20040;-85
2022/07/16 09:12:45;;;;;;;7.57;2.33;;;19.50;91.30;;;;;;5074403;28;20047;-85
2022/07/16 09:15:28;;;;;;;6.22;1.20;;;19.60;92.00;;;;;;5074400;28;20081;-85
2022/07/16 09:18:05;;;;;;;;;;;19.80;93.00;;;;;;5090870;28;20504;-86
2022/07/16 09:20:31;;;;;;;6.65;1.33;;;19.70;93.60;;;;;;5090527;28;19916;-85
2022/07/16 09:22:57;;;;;;;7.80;2.22;;;19.70;93.20;;;;;;5072738;28;20550;-85
2022/07/16 09:25:22;;;;;;;7.18;1.85;;;19.80;92.40;;;;;;5089842;28;20394;-85
2022/07/16 09:27:57;;;;;;;10.68;1.50;;;19.80;91.50;;;;;;5089117;28;20036;-85
2022/07/16 09:30:24;;;;;;;9.45;2.28;;;19.80;91.30;;;;;;5089625;28;20039;-85
2022/07/16 09:32:50;;;;;;;9.38;2.75;;;19.80;91.50;;;;;;5073990;28;20093;-85
2022/07/16 09:35:17;;;;;;;8.48;1.30;;;19.80;90.00;;;;;;5073706;28;20451;-86
2022/07/16 09:37:52;;;;;;;7.93;1.30;;;19.80;90.30;;;;;;5073049;28;20036;-85
2022/07/16 09:40:40;;;;;;;9.43;1.50;;;19.80;90.20;;;;;;5073586;28;20119;-85
2022/07/16 09:43:11;;;;;;;7.60;1.58;;;19.90;95.10;;;;;;5072753;28;20040;-85
2022/07/16 09:45:39;;;;;;;6.35;1.35;;;19.90;93.80;;;;;;5073494;28;20048;-86
2022/07/16 09:48:37;;;;;;;7.35;1.42;;;20.10;92.10;;;;;;5089264;28;20467;-85
2022/07/16 09:51:19;;;;;;;8.15;1.38;;;20.20;93.00;;;;;;5035856;28;20048;-86
2022/07/16 09:53:47;;;;;;;7.18;1.75;;;20.30;91.50;;;;;;5090886;28;20039;-85
2022/07/16 09:56:15;;;;;;;5.13;1.20;;;20.40;88.10;;;;;;5089956;28;20047;-86
2022/07/16 09:58:49;;;;;;;7.82;1.17;;;20.50;86.60;;;;;;5090955;28;20048;-85
2022/07/16 10:01:16;;;;;;;6.95;1.40;;;20.50;86.30;;;;;;5089633;28;20123;-85
2022/07/16 10:03:42;;;;;;;6.13;1.30;;;20.60;87.70;;;;;;5089352;28;20501;-85
2022/07/16 10:06:08;;;;;;;10.80;4.18;;;20.70;88.70;;;;;;5072514;28;20048;-86
2022/07/16 10:08:34;;;;;;;13.52;1.80;;;20.80;90.30;;;;;;5072176;28;20043;-85
2022/07/16 10:11:00;;;;;;;5.68;1.02;;;20.90;85.90;;;;;;5073192;28;20040;-86
2022/07/16 10:13:27;;;;;;;8.68;1.42;;;21.00;84.10;;;;;;5089204;28;20489;-85
2022/07/16 10:15:54;;;;;;;9.43;1.70;;;21.00;80.30;;;;;;5090303;28;20047;-86
2022/07/16 10:18:44;;;;;;;10.38;1.50;;;21.00;81.70;;;;;;5089503;28;20028;-85
2022/07/16 10:21:21;;;;;;;7.45;1.55;;;21.10;85.00;;;;;;5089773;28;20406;-85
2022/07/16 10:23:50;;;;;;;12.70;1.50;;;21.10;81.90;;;;;;5078381;28;20115;-86
2022/07/16 10:26:21;;;;;;;6.88;1.67;;;21.10;81.30;;;;;;5072249;28;20421;-86
2022/07/16 10:28:54;;;;;;;6.80;1.33;;;21.10;82.00;;;;;;5086647;28;20127;-85
2022/07/16 10:31:40;;;;;;;8.90;1.63;;;21.10;81.80;;;;;;5087235;28;20048;-86
2022/07/16 10:34:15;;;;;;;8.02;1.70;;;21.30;86.50;;;;;;5089230;28;20047;-86
2022/07/16 10:36:53;;;;;;;6.88;1.35;;;21.30;82.00;;;;;;5088613;28;20036;-85
2022/07/16 10:39:20;;;;;;;10.02;1.23;;;21.30;84.10;;;;;;5089502;28;20435;-85
2022/07/16 10:41:58;;;;;;;11.57;2.25;;;21.20;83.80;;;;;;5090152;28;20515;-85
2022/07/16 10:44:48;;;;;;;8.05;1.33;;;21.20;85.60;;;;;;5076784;28;20036;-86
2022/07/16 10:47:15;;;;;;;7.05;1.27;;;21.40;90.00;;;;;;5052594;28;20044;-85
2022/07/16 10:49:41;;;;;;;9.15;1.38;;;21.50;87.30;;;;;;5080165;28;20044;-85
2022/07/16 10:52:14;;;;;;;17.90;3.00;;;21.70;83.60;;;;;;5064293;28;20043;-86
2022/07/16 10:54:51;;;;;;;9.73;1.83;;;21.80;81.10;;;;;;5058431;28;20094;-86
2022/07/16 10:57:17;;;;;;;8.75;1.50;;;21.90;80.60;;;;;;5089490;28;20055;-86
2022/07/16 10:59:47;;;;;;;11.75;2.22;;;22.00;78.00;;;;;;5089421;28;20193;-85
2022/07/16 11:02:15;;;;;;;8.30;1.70;;;22.10;79.30;;;;;;5089079;28;20135;-85
2022/07/16 11:04:46;;;;;;;9.90;1.48;;;22.10;78.40;;;;;;5055809;28;20036;-86
2022/07/16 11:07:13;;;;;;;10.05;1.80;;;21.90;79.20;;;;;;5088603;28;20040;-85
2022/07/16 11:09:41;;;;;;;7.35;1.30;;;21.70;81.30;;;;;;5072125;28;20041;-85
2022/07/16 11:12:14;;;;;;;9.95;2.30;;;21.60;81.30;;;;;;5088596;28;20058;-85
2022/07/16 11:14:41;;;;;;;9.00;3.15;;;21.60;80.00;;;;;;5088991;28;20488;-85
2022/07/16 11:17:08;;;;;;;8.93;2.10;;;21.80;82.70;;;;;;5071779;28;20075;-85
2022/07/16 11:19:38;;;;;;;8.65;3.38;;;21.90;78.70;;;;;;5071396;28;20051;-85
2022/07/16 11:22:04;;;;;;;9.38;1.83;;;22.10;76.90;;;;;;5088397;28;20126;-86
2022/07/16 11:24:31;;;;;;;8.48;1.67;;;22.30;73.40;;;;;;5071256;28;20063;-85
2022/07/16 11:26:58;;;;;;;8.88;1.48;;;22.40;72.60;;;;;;5071473;28;20040;-86
2022/07/16 11:29:25;;;;;;;6.32;1.52;;;22.50;70.40;;;;;;5061981;28;20036;-86
2022/07/16 11:31:51;;;;;;;7.38;1.48;;;22.70;71.40;;;;;;5063657;28;20554;-86
2022/07/16 11:34:22;;;;;;;6.18;1.20;;;22.80;69.00;;;;;;5079652;28;20041;-86
2022/07/16 11:36:50;;;;;;;5.77;1.30;;;22.80;68.30;;;;;;5063482;28;20509;-86
2022/07/16 11:39:19;;;;;;;16.30;1.83;;;22.80;66.10;;;;;;5060779;28;20046;-85
2022/07/16 11:41:48;;;;;;;5.10;1.30;;;22.90;64.90;;;;;;5096465;28;20043;-86
2022/07/16 11:44:17;;;;;;;5.35;1.10;;;23.10;63.40;;;;;;5094611;28;20039;-86
2022/07/16 11:46:48;;;;;;;4.88;1.10;;;22.90;63.00;;;;;;5078626;28;20036;-86
2022/07/16 11:49:39;;;;;;;6.15;1.13;;;22.70;62.10;;;;;;5079476;28;20327;-85
2022/07/16 11:52:24;;;;;;;5.55;1.20;;;22.70;63.50;;;;;;5074364;28;20046;-86
2022/07/16 11:54:53;;;;;;;6.65;1.30;;;22.80;64.60;;;;;;5072093;28;20123;-86
2022/07/16 11:57:19;;;;;;;6.28;1.27;;;23.00;65.40;;;;;;5090119;28;20071;-86
2022/07/16 11:59:52;;;;;;;9.07;1.40;;;23.20;65.30;;;;;;5108881;28;20082;-86
2022/07/16 12:02:25;;;;;;;6.40;1.17;;;23.30;65.40;;;;;;5074657;28;20505;-86
2022/07/16 12:04:56;;;;;;;7.50;1.40;;;23.30;63.20;;;;;;5074537;28;20042;-86
2022/07/16 12:07:25;;;;;;;4.40;1.02;;;23.40;62.80;;;;;;5090161;28;20404;-86
2022/07/16 12:09:56;;;;;;;7.35;1.50;;;23.40;61.50;;;;;;5091167;28;20097;-86
2022/07/16 12:12:23;;;;;;;7.90;1.30;;;23.50;61.50;;;;;;5093991;28;20044;-86
2022/07/16 12:14:56;;;;;;;6.25;1.13;;;23.70;62.00;;;;;;5091386;28;20162;-86
2022/07/16 12:17:36;;;;;;;5.55;1.30;;;23.90;61.20;;;;;;5092374;28;20063;-87
2022/07/16 12:20:06;;;;;;;6.47;1.42;;;24.00;61.60;;;;;;5091544;28;20169;-86
2022/07/16 12:22:51;;;;;;;8.23;1.63;;;24.30;60.00;;;;;;5075220;28;20048;-86
2022/07/16 12:25:19;;;;;;;7.97;1.70;;;24.30;59.70;;;;;;5091253;28;20032;-86
2022/07/16 12:27:50;;;;;;;7.10;1.50;;;24.40;59.80;;;;;;5092391;28;20040;-86
2022/07/16 12:30:17;;;;;;;7.22;1.58;;;24.40;60.10;;;;;;5074915;28;20122;-86
2022/07/16 12:32:52;;;;;;;7.60;1.50;;;24.40;59.80;;;;;;5092074;28;20040;-86
2022/07/16 12:35:39;;;;;;;7.13;1.20;;;24.40;59.80;;;;;;5091650;28;20040;-87
2022/07/16 12:38:05;;;;;;;6.15;1.17;;;24.50;59.60;;;;;;5075043;28;20499;-86
2022/07/16 12:40:31;;;;;;;8.52;1.70;;;24.60;58.20;;;;;;5090900;28;20489;-86
2022/07/16 12:42:58;;;;;;;6.90;1.60;;;24.80;57.60;;;;;;5091550;28;20505;-87
2022/07/16 12:45:24;;;;;;;5.63;1.20;;;24.80;58.80;;;;;;5073702;28;20374;-86
2022/07/16 12:47:50;;;;;;;9.40;1.63;;;24.80;57.80;;;;;;5073796;28;20040;-87
2022/07/16 12:50:16;;;;;;;7.75;1.40;;;24.70;57.70;;;;;;5074602;28;20044;-86
2022/07/16 12:52:42;;;;;;;7.45;1.33;;;24.60;58.20;;;;;;5073935;28;20040;-86
2022/07/16 13:00:36;;;;;;;9.70;1.70;;;24.50;59.70;;;;;;5092539;28;20129;-86